Time;durP1;ratioP1;P1;durP2;ratioP2;P2;SDS_P1;SDS_P2;PMS_P1;PMS_P2;Temp;Humidity;BMP_temperature;BMP_pressure;BME280_temperature;BME280_humidity;BME280_pressure;Samples;Min_cycle;Max_cycle;Signal;HPM_P1;HPM_P2
2021/06/01 00:00:07;;;;;;;2.08;1.17;;;18.40;38.50;;;;;;5033241;28;20068;-94
2021/06/01 00:02:33;;;;;;;2.17;1.30;;;18.30;38.50;;;;;;5017679;28;20026;-93
2021/06/01 00:04:59;;;;;;;1.10;0.95;;;18.30;38.60;;;;;;5006033;28;20129;-93
2021/06/01 00:07:24;;;;;;;1.88;1.10;;;18.30;38.60;;;;;;5003204;28;20036;-92
2021/06/01 00:09:50;;;;;;;1.63;1.05;;;18.20;38.70;;;;;;5026628;28;20515;-92
2021/06/01 00:12:15;;;;;;;1.00;0.85;;;18.20;38.70;;;;;;5010404;28;20022;-93
2021/06/01 00:14:41;;;;;;;1.23;0.80;;;18.20;38.70;;;;;;4995014;28;20030;-92
2021/06/01 00:17:07;;;;;;;1.85;0.77;;;18.20;38.80;;;;;;5007416;28;20060;-93
2021/06/01 00:19:32;;;;;;;1.45;0.80;;;18.30;38.80;;;;;;5029062;28;20029;-93
2021/06/01 00:21:58;;;;;;;1.63;1.10;;;18.20;38.70;;;;;;5014904;28;20024;-94
2021/06/01 00:24:23;;;;;;;2.13;1.13;;;18.20;38.70;;;;;;5027186;28;20094;-94
2021/06/01 00:26:49;;;;;;;1.25;1.10;;;18.10;38.80;;;;;;5010630;28;20034;-94
2021/06/01 00:29:15;;;;;;;1.30;0.98;;;18.10;38.90;;;;;;5015172;28;20026;-94
2021/06/01 00:31:42;;;;;;;1.60;1.13;;;18.00;39.10;;;;;;5006196;28;20064;-94
2021/06/01 00:34:08;;;;;;;1.73;1.10;;;18.00;39.20;;;;;;5022427;28;20022;-94
2021/06/01 00:36:33;;;;;;;1.73;1.10;;;17.90;39.30;;;;;;5018368;28;20038;-94
2021/06/01 00:38:59;;;;;;;1.10;0.90;;;17.90;39.40;;;;;;5016281;28;20551;-96
2021/06/01 00:41:25;;;;;;;1.98;1.30;;;17.90;39.50;;;;;;5010433;28;20026;-94
2021/06/01 00:43:51;;;;;;;2.75;1.20;;;17.90;39.50;;;;;;5017491;28;20032;-95
2021/06/01 00:46:16;;;;;;;1.80;1.20;;;17.90;39.50;;;;;;4997506;28;20027;-94
2021/06/01 00:48:42;;;;;;;1.58;1.17;;;17.90;39.60;;;;;;4994824;28;20040;-96
2021/06/01 00:51:08;;;;;;;1.10;1.00;;;17.80;39.60;;;;;;5010418;28;20092;-95
2021/06/01 00:53:36;;;;;;;2.15;1.10;;;17.80;39.70;;;;;;5014146;28;20032;-95
2021/06/01 00:56:04;;;;;;;1.33;1.20;;;17.80;39.70;;;;;;5024983;28;20049;-94
2021/06/01 00:58:29;;;;;;;3.13;1.50;;;17.80;39.90;;;;;;5015550;28;20018;-94
2021/06/01 01:03:23;;;;;;;2.53;1.30;;;17.70;40.00;;;;;;5033231;28;20029;-94
2021/06/01 01:05:50;;;;;;;2.65;1.30;;;17.70;40.80;;;;;;5007702;28;20034;-94
2021/06/01 01:11:06;;;;;;;1.30;1.10;;;17.60;40.40;;;;;;5000303;28;20034;-92
2021/06/01 01:13:40;;;;;;;1.73;1.13;;;17.60;40.50;;;;;;5012157;28;20018;-93
2021/06/01 01:16:06;;;;;;;1.00;0.95;;;17.60;40.50;;;;;;5009134;28;20480;-94
2021/06/01 01:18:34;;;;;;;2.10;1.30;;;17.60;40.70;;;;;;5013115;28;20071;-94
2021/06/01 01:21:19;;;;;;;2.63;1.30;;;17.50;40.70;;;;;;5007580;28;20613;-94
2021/06/01 01:23:54;;;;;;;1.58;1.20;;;17.40;41.00;;;;;;5012152;28;20026;-96
2021/06/01 01:26:35;;;;;;;2.80;1.00;;;17.30;41.20;;;;;;4993832;28;20160;-95
2021/06/01 01:29:07;;;;;;;1.17;1.08;;;17.30;41.40;;;;;;5002200;28;20395;-96
2021/06/01 01:31:47;;;;;;;1.98;1.27;;;17.20;41.40;;;;;;5012786;28;20037;-96
2021/06/01 01:34:14;;;;;;;1.73;1.30;;;17.20;41.70;;;;;;4996824;28;20030;-96
2021/06/01 01:36:42;;;;;;;1.33;1.02;;;17.20;41.80;;;;;;5029235;28;20026;-96
2021/06/01 01:39:10;;;;;;;1.52;1.10;;;17.10;42.70;;;;;;5017802;28;20026;-96
2021/06/01 01:41:37;;;;;;;1.92;1.40;;;17.10;42.20;;;;;;5011360;28;20029;-96
2021/06/01 01:44:07;;;;;;;2.72;1.50;;;17.00;42.20;;;;;;4995166;28;20034;-96
2021/06/01 01:49:12;;;;;;;2.40;1.63;;;16.90;42.50;;;;;;4993794;28;20041;-96
2021/06/01 01:51:40;;;;;;;2.55;1.55;;;16.80;42.60;;;;;;5000470;28;20092;-95
2021/06/01 01:54:15;;;;;;;2.28;1.60;;;16.80;42.90;;;;;;4993494;28;20030;-96
2021/06/01 01:56:46;;;;;;;2.40;1.60;;;16.80;43.10;;;;;;5014337;28;20542;-95
2021/06/01 01:59:18;;;;;;;1.48;1.23;;;16.70;43.10;;;;;;5016742;28;20025;-96
2021/06/01 02:01:50;;;;;;;2.85;1.40;;;16.60;43.20;;;;;;5008404;28;20468;-96
2021/06/01 02:04:18;;;;;;;2.45;1.40;;;16.70;43.50;;;;;;5012262;28;20084;-96
2021/06/01 02:06:46;;;;;;;2.67;1.48;;;16.60;43.50;;;;;;5005102;28;20117;-96
2021/06/01 02:09:35;;;;;;;2.90;2.00;;;16.60;43.70;;;;;;4999294;28;20032;-96
2021/06/01 02:12:02;;;;;;;5.28;2.70;;;16.50;43.90;;;;;;5011608;28;20645;-96
2021/06/01 02:14:27;;;;;;;2.53;1.58;;;16.40;44.20;;;;;;5007792;28;20042;-95
2021/06/01 02:16:53;;;;;;;2.13;1.70;;;16.40;44.40;;;;;;5007214;28;20014;-96
2021/06/01 02:19:21;;;;;;;2.30;1.50;;;16.30;44.40;;;;;;5011433;28;20064;-96
2021/06/01 02:22:07;;;;;;;2.45;1.70;;;16.30;44.60;;;;;;5008501;28;20026;-94
2021/06/01 02:24:49;;;;;;;2.95;1.90;;;16.30;44.80;;;;;;5013020;28;20488;-94
2021/06/01 02:27:53;;;;;;;2.17;1.50;;;16.20;45.00;;;;;;5004460;28;20041;-94
2021/06/01 02:30:22;;;;;;;1.50;1.40;;;16.10;45.20;;;;;;4997673;28;20531;-94
2021/06/01 02:32:52;;;;;;;3.63;1.60;;;16.10;45.40;;;;;;5003666;28;20042;-95
2021/06/01 02:35:27;;;;;;;2.00;1.58;;;16.10;45.60;;;;;;4991608;28;20072;-93
2021/06/01 02:37:53;;;;;;;1.98;1.55;;;16.00;45.60;;;;;;5002720;28;20026;-94
2021/06/01 02:40:21;;;;;;;2.13;1.10;;;16.00;45.70;;;;;;5011479;28;20025;-94
2021/06/01 02:42:48;;;;;;;1.50;1.38;;;16.00;45.70;;;;;;4992356;28;20093;-96
2021/06/01 02:45:18;;;;;;;1.65;1.23;;;16.00;45.60;;;;;;4995592;28;20035;-95
2021/06/01 02:47:44;;;;;;;3.00;1.58;;;16.10;45.70;;;;;;5013659;28;20047;-94
2021/06/01 02:50:12;;;;;;;2.55;1.63;;;16.00;45.80;;;;;;5012670;28;20022;-96
2021/06/01 02:52:40;;;;;;;2.15;1.80;;;16.00;46.00;;;;;;4996916;28;20026;-96
2021/06/01 02:55:07;;;;;;;2.42;1.60;;;16.00;46.10;;;;;;4995204;28;20029;-96
2021/06/01 02:57:33;;;;;;;2.25;1.40;;;16.00;46.20;;;;;;5013177;28;20142;-96
2021/06/01 03:00:00;;;;;;;3.13;1.55;;;16.00;46.30;;;;;;5019827;28;20025;-95
2021/06/01 03:02:28;;;;;;;2.38;1.42;;;15.90;46.30;;;;;;5015642;28;20026;-95
2021/06/01 03:04:54;;;;;;;1.95;1.58;;;15.90;46.40;;;;;;5011197;28;20080;-94
2021/06/01 03:07:21;;;;;;;2.15;1.33;;;15.90;46.50;;;;;;5005823;28;20014;-93
2021/06/01 03:09:54;;;;;;;3.08;1.50;;;15.90;46.60;;;;;;5019027;28;20500;-93
2021/06/01 03:12:39;;;;;;;;;;;15.80;46.90;;;;;;5032403;28;20022;-93
2021/06/01 03:15:07;;;;;;;4.03;1.70;;;15.80;46.90;;;;;;5009834;28;19920;-94
2021/06/01 03:17:32;;;;;;;4.28;1.40;;;15.70;47.00;;;;;;5015551;28;20037;-93
2021/06/01 03:19:58;;;;;;;1.95;1.33;;;15.70;47.00;;;;;;5028809;28;20013;-92
2021/06/01 03:22:23;;;;;;;2.42;1.40;;;15.70;47.00;;;;;;5005359;28;20061;-93
2021/06/01 03:24:49;;;;;;;2.13;1.33;;;15.70;47.20;;;;;;4994355;28;20030;-94
2021/06/01 03:27:14;;;;;;;1.95;1.52;;;15.70;47.30;;;;;;4996254;28;20384;-94
2021/06/01 03:29:40;;;;;;;2.28;1.67;;;15.70;47.50;;;;;;5014936;28;20376;-93
2021/06/01 03:32:07;;;;;;;1.75;1.40;;;15.70;47.60;;;;;;5013636;28;20037;-94
2021/06/01 03:34:33;;;;;;;2.92;2.10;;;15.70;47.70;;;;;;5009954;28;20049;-95
2021/06/01 03:36:59;;;;;;;2.80;1.92;;;15.70;47.90;;;;;;5015111;28;20034;-95
2021/06/01 03:39:27;;;;;;;1.50;1.40;;;15.70;47.90;;;;;;5005487;28;20033;-96
2021/06/01 03:41:53;;;;;;;3.10;1.50;;;15.70;47.90;;;;;;5003331;28;20112;-96
2021/06/01 03:44:19;;;;;;;3.38;1.70;;;15.70;48.00;;;;;;4997280;28;20030;-96
2021/06/01 03:46:44;;;;;;;2.20;1.67;;;15.70;47.90;;;;;;5006043;28;20030;-95
2021/06/01 03:49:10;;;;;;;2.28;1.70;;;15.70;48.00;;;;;;5013500;28;20049;-93
2021/06/01 03:51:36;;;;;;;3.55;2.00;;;15.70;48.20;;;;;;5014381;28;20045;-94
2021/06/01 03:54:01;;;;;;;2.88;1.50;;;15.70;48.30;;;;;;5012664;28;20117;-95
2021/06/01 03:56:27;;;;;;;2.70;1.70;;;15.70;48.20;;;;;;5013600;28;20018;-95
2021/06/01 03:58:52;;;;;;;1.65;1.52;;;15.70;48.20;;;;;;5032031;28;20064;-95
2021/06/01 04:01:18;;;;;;;1.95;1.60;;;15.60;48.30;;;;;;5018676;28;20047;-93
2021/06/01 04:03:44;;;;;;;2.40;1.77;;;15.70;48.40;;;;;;5005017;28;20108;-93
2021/06/01 04:06:11;;;;;;;2.03;1.80;;;15.70;48.30;;;;;;5011980;28;20083;-93
2021/06/01 04:08:37;;;;;;;2.17;1.60;;;15.70;48.30;;;;;;5001548;28;20017;-94
2021/06/01 04:11:03;;;;;;;2.95;1.90;;;15.70;48.30;;;;;;5002893;28;20083;-94
2021/06/01 04:13:29;;;;;;;3.70;2.08;;;15.60;48.40;;;;;;4994597;28;20500;-94
2021/06/01 04:15:55;;;;;;;3.10;2.10;;;15.60;48.50;;;;;;5008668;28;20022;-94
2021/06/01 04:18:20;;;;;;;3.55;2.03;;;15.60;48.70;;;;;;5011052;28;20485;-93
2021/06/01 04:20:46;;;;;;;2.58;1.77;;;15.60;48.80;;;;;;5001565;28;20083;-94
2021/06/01 04:23:12;;;;;;;2.58;1.42;;;15.60;48.80;;;;;;5021583;28;20080;-95
2021/06/01 04:25:38;;;;;;;2.50;1.95;;;15.70;48.80;;;;;;5024499;28;20118;-94
2021/06/01 04:28:05;;;;;;;2.10;1.60;;;15.60;48.80;;;;;;5032382;28;20028;-94
2021/06/01 04:30:31;;;;;;;2.67;1.90;;;15.70;49.00;;;;;;5000075;28;20117;-94
2021/06/01 04:32:56;;;;;;;3.65;1.70;;;15.70;49.00;;;;;;4994313;28;20054;-94
2021/06/01 04:35:22;;;;;;;2.92;1.88;;;15.70;49.10;;;;;;4994455;28;20022;-94
2021/06/01 04:37:48;;;;;;;2.00;1.60;;;15.70;49.10;;;;;;4994232;28;20030;-94
2021/06/01 04:40:15;;;;;;;4.40;2.10;;;15.70;49.10;;;;;;5009012;28;20037;-93
2021/06/01 04:42:42;;;;;;;2.47;1.70;;;15.80;49.30;;;;;;5011881;28;20022;-92
2021/06/01 04:45:08;;;;;;;2.38;1.60;;;15.80;49.30;;;;;;5010084;28;20124;-92
2021/06/01 04:47:34;;;;;;;3.05;1.98;;;15.80;49.20;;;;;;4992599;28;20023;-92
2021/06/01 04:50:00;;;;;;;3.05;2.00;;;15.90;49.30;;;;;;4992968;28;20031;-94
2021/06/01 04:52:25;;;;;;;4.95;2.63;;;15.90;49.30;;;;;;4993104;28;20084;-94
2021/06/01 04:54:51;;;;;;;2.80;1.65;;;16.00;49.20;;;;;;5001330;28;20026;-94
2021/06/01 04:57:16;;;;;;;3.35;1.80;;;16.70;48.50;;;;;;5024001;28;20018;-96
2021/06/01 04:59:42;;;;;;;2.30;1.80;;;17.30;47.00;;;;;;5003992;28;20096;-95
2021/06/01 05:02:08;;;;;;;1.70;1.50;;;17.90;45.70;;;;;;4996800;28;20022;-95
2021/06/01 05:04:34;;;;;;;2.50;1.40;;;18.40;44.60;;;;;;5037996;28;20599;-94
2021/06/01 05:07:00;;;;;;;2.03;1.52;;;18.90;43.70;;;;;;5041484;28;20022;-94
2021/06/01 05:09:26;;;;;;;3.05;1.80;;;19.40;42.60;;;;;;4997396;28;20536;-93
2021/06/01 05:14:37;;;;;;;4.15;2.08;;;19.80;41.70;;;;;;5139847;22;20111;-94
2021/06/01 05:17:03;;;;;;;2.67;1.88;;;20.10;42.00;;;;;;5014947;28;20125;-95
2021/06/01 05:19:29;;;;;;;2.20;1.70;;;20.40;40.90;;;;;;5006795;28;20077;-93
2021/06/01 05:21:55;;;;;;;1.70;1.60;;;20.60;40.50;;;;;;5036922;28;20026;-94
2021/06/01 05:24:21;;;;;;;2.70;1.77;;;20.90;40.10;;;;;;5007784;28;20037;-94
2021/06/01 05:26:46;;;;;;;3.15;2.15;;;21.20;39.60;;;;;;5028217;28;20523;-95
2021/06/01 05:29:12;;;;;;;2.15;1.70;;;21.30;39.00;;;;;;5020061;28;20026;-96
2021/06/01 05:36:47;;;;;;;3.35;2.15;;;21.50;38.60;;;;;;5000661;28;20047;-96
2021/06/01 05:39:14;;;;;;;2.70;1.90;;;21.60;38.70;;;;;;5006879;28;20022;-90
2021/06/01 05:41:40;;;;;;;3.70;2.13;;;21.70;39.00;;;;;;4978971;28;20058;-92
2021/06/01 05:44:06;;;;;;;2.85;1.83;;;21.90;38.50;;;;;;4972400;28;20026;-92
2021/06/01 05:46:33;;;;;;;3.05;1.70;;;21.90;38.70;;;;;;4975141;28;20129;-93
2021/06/01 05:48:59;;;;;;;3.03;2.00;;;22.00;38.60;;;;;;4985652;28;20045;-92
2021/06/01 05:51:31;;;;;;;2.15;1.80;;;22.10;38.40;;;;;;4975930;28;20051;-95
2021/06/01 05:53:56;;;;;;;2.75;1.90;;;22.10;38.40;;;;;;4972650;28;20410;-91
2021/06/01 05:56:22;;;;;;;2.80;1.73;;;22.20;38.40;;;;;;4972337;28;20030;-87
2021/06/01 05:58:48;;;;;;;2.88;2.13;;;22.20;38.70;;;;;;4972005;28;20031;-89
2021/06/01 06:01:13;;;;;;;3.67;2.35;;;22.10;38.50;;;;;;4971913;28;20106;-91
2021/06/01 06:03:39;;;;;;;5.85;1.95;;;22.00;38.80;;;;;;4965931;28;20137;-92
2021/06/01 06:06:11;;;;;;;3.80;2.08;;;21.80;39.30;;;;;;4969287;28;20027;-89
2021/06/01 06:08:36;;;;;;;2.65;1.52;;;21.70;39.40;;;;;;4973480;28;20027;-92
2021/06/01 06:11:02;;;;;;;2.83;1.70;;;21.70;39.90;;;;;;4978091;28;20032;-91
2021/06/01 06:13:35;;;;;;;3.13;1.90;;;21.50;40.00;;;;;;4976209;28;20027;-91
2021/06/01 06:16:01;;;;;;;2.90;1.80;;;21.50;40.00;;;;;;4972159;28;20580;-91
2021/06/01 06:18:37;;;;;;;2.35;1.80;;;21.40;40.30;;;;;;4972742;28;20031;-90
2021/06/01 06:21:05;;;;;;;4.68;1.88;;;21.30;40.40;;;;;;4974374;28;20110;-91
2021/06/01 06:23:40;;;;;;;3.15;1.83;;;21.20;40.40;;;;;;4981626;28;20019;-95
2021/06/01 06:26:06;;;;;;;3.08;1.60;;;21.10;40.70;;;;;;4981726;28;20038;-95
2021/06/01 06:28:32;;;;;;;3.58;2.45;;;21.10;40.90;;;;;;4976968;28;20018;-96
2021/06/01 06:30:58;;;;;;;3.95;1.80;;;21.10;40.70;;;;;;4973542;28;20019;-94
2021/06/01 06:33:23;;;;;;;3.38;2.00;;;21.10;40.90;;;;;;4966370;28;20089;-95
2021/06/01 06:35:50;;;;;;;3.20;1.80;;;21.20;40.80;;;;;;4981422;28;20035;-94
2021/06/01 06:38:16;;;;;;;2.00;1.80;;;21.30;40.90;;;;;;4985157;28;20019;-92
2021/06/01 06:40:45;;;;;;;2.97;1.85;;;21.40;40.70;;;;;;4976110;28;20532;-93
2021/06/01 06:43:10;;;;;;;1.55;1.35;;;21.50;40.60;;;;;;4977362;28;20027;-93
2021/06/01 06:45:36;;;;;;;2.22;1.63;;;21.60;40.60;;;;;;4982564;28;20042;-94
2021/06/01 06:48:09;;;;;;;2.60;1.60;;;21.70;40.50;;;;;;4976384;28;20023;-93
2021/06/01 06:50:36;;;;;;;3.38;2.20;;;21.80;40.30;;;;;;4977942;28;20488;-93
2021/06/01 06:53:03;;;;;;;3.30;2.35;;;21.70;40.20;;;;;;4978204;28;20121;-93
2021/06/01 06:55:29;;;;;;;1.88;1.50;;;21.60;40.20;;;;;;4976875;28;20127;-92
2021/06/01 06:57:54;;;;;;;3.13;2.20;;;21.50;40.40;;;;;;4975433;28;20472;-92
2021/06/01 07:00:23;;;;;;;2.90;1.98;;;21.60;40.40;;;;;;4975869;28;20019;-93
2021/06/01 07:02:48;;;;;;;2.60;1.98;;;21.60;40.40;;;;;;4975484;28;20058;-92
2021/06/01 07:05:17;;;;;;;2.60;1.75;;;21.60;40.60;;;;;;4977715;28;20031;-89
2021/06/01 07:07:43;;;;;;;3.83;1.90;;;21.80;40.70;;;;;;4984102;28;20093;-91
2021/06/01 07:10:12;;;;;;;3.53;2.25;;;22.10;40.50;;;;;;4976371;28;20027;-90
2021/06/01 07:12:40;;;;;;;4.35;1.80;;;22.00;40.00;;;;;;4976216;28;20058;-90
2021/06/01 07:15:29;;;;;;;2.78;1.70;;;22.10;39.80;;;;;;4975727;28;20038;-92
2021/06/01 07:17:58;;;;;;;2.90;2.13;;;22.10;40.20;;;;;;4983613;28;20806;-93
2021/06/01 07:20:29;;;;;;;3.13;2.38;;;22.10;40.10;;;;;;4971531;28;20023;-94
2021/06/01 07:22:55;;;;;;;3.20;2.10;;;22.20;39.90;;;;;;4974074;28;20053;-93
2021/06/01 07:25:20;;;;;;;2.90;2.22;;;22.00;40.30;;;;;;4979157;28;20481;-90
2021/06/01 07:27:46;;;;;;;3.38;2.00;;;21.90;40.00;;;;;;4987010;28;20029;-91
2021/06/01 07:30:12;;;;;;;3.83;2.28;;;21.90;40.50;;;;;;4980245;28;20678;-92
2021/06/01 07:32:38;;;;;;;4.95;2.40;;;21.70;40.50;;;;;;4977770;28;20035;-92
2021/06/01 07:35:04;;;;;;;3.78;2.20;;;21.80;40.90;;;;;;4989953;28;20031;-91
2021/06/01 07:37:30;;;;;;;4.68;2.10;;;21.90;41.10;;;;;;4970282;28;20509;-91
2021/06/01 07:39:55;;;;;;;4.28;2.17;;;22.00;41.20;;;;;;4974573;28;20042;-92
2021/06/01 07:42:21;;;;;;;2.35;1.70;;;22.00;41.10;;;;;;4975449;28;20058;-89
2021/06/01 07:44:46;;;;;;;2.75;2.00;;;22.30;41.20;;;;;;4974666;28;20121;-91
2021/06/01 07:47:12;;;;;;;2.60;1.88;;;22.50;40.90;;;;;;4974471;28;20034;-91
2021/06/01 07:49:37;;;;;;;2.97;1.90;;;22.70;40.80;;;;;;4975472;28;20098;-91
2021/06/01 07:52:03;;;;;;;2.15;1.80;;;22.80;40.50;;;;;;4975426;28;20227;-92
2021/06/01 07:54:32;;;;;;;2.90;2.42;;;22.90;40.20;;;;;;4975545;28;20465;-93
2021/06/01 07:56:57;;;;;;;3.05;2.03;;;23.00;40.40;;;;;;4977454;28;20029;-90
2021/06/01 07:59:23;;;;;;;3.33;2.00;;;23.00;40.20;;;;;;4975134;28;20023;-93
2021/06/01 08:01:48;;;;;;;3.33;2.25;;;23.00;40.20;;;;;;4976867;28;20405;-91
2021/06/01 08:04:14;;;;;;;3.85;2.20;;;23.00;40.30;;;;;;4985565;28;20050;-90
2021/06/01 08:06:39;;;;;;;2.60;2.28;;;23.10;40.50;;;;;;4972882;28;20238;-90
2021/06/01 08:09:06;;;;;;;3.25;2.30;;;23.20;40.40;;;;;;4973714;28;20069;-88
2021/06/01 08:11:33;;;;;;;5.07;2.45;;;23.20;40.30;;;;;;4977693;28;20054;-90
2021/06/01 08:13:58;;;;;;;3.47;2.00;;;23.20;40.40;;;;;;4976577;28;20437;-91
2021/06/01 08:16:24;;;;;;;4.03;2.65;;;23.30;40.60;;;;;;4975860;28;20023;-92
2021/06/01 08:19:13;;;;;;;3.58;2.72;;;23.20;40.50;;;;;;4973871;28;20385;-90
2021/06/01 08:21:43;;;;;;;5.32;2.60;;;23.20;40.90;;;;;;4983786;28;20040;-89
2021/06/01 08:24:09;;;;;;;4.07;2.20;;;23.10;40.40;;;;;;4971908;28;20054;-89
2021/06/01 08:26:35;;;;;;;2.50;2.00;;;22.90;40.30;;;;;;4974826;28;20152;-88
2021/06/01 08:29:01;;;;;;;2.28;2.00;;;22.90;40.90;;;;;;4962160;28;20031;-88
2021/06/01 08:31:27;;;;;;;3.58;2.35;;;23.00;41.20;;;;;;4972475;28;20027;-88
2021/06/01 08:33:53;;;;;;;3.13;2.13;;;23.30;41.30;;;;;;4973848;28;20085;-90
2021/06/01 08:36:18;;;;;;;3.00;2.40;;;23.40;40.80;;;;;;4989283;28;20041;-89
2021/06/01 08:38:44;;;;;;;4.53;2.90;;;23.30;40.10;;;;;;4967403;28;20102;-87
2021/06/01 08:41:16;;;;;;;3.35;2.40;;;23.30;40.00;;;;;;4970676;28;20092;-89
2021/06/01 08:43:42;;;;;;;3.55;2.67;;;23.20;40.10;;;;;;4974597;28;20053;-88
2021/06/01 08:46:10;;;;;;;2.35;1.70;;;23.30;39.90;;;;;;4987582;28;20679;-89
2021/06/01 08:48:36;;;;;;;3.25;2.30;;;23.50;39.90;;;;;;4972146;28;20030;-88
2021/06/01 08:51:01;;;;;;;2.15;1.90;;;23.60;39.90;;;;;;4975755;28;20030;-87
2021/06/01 08:53:27;;;;;;;4.65;2.58;;;23.80;39.20;;;;;;4981368;28;20030;-90
2021/06/01 08:55:52;;;;;;;2.28;1.83;;;23.80;39.10;;;;;;4980392;28;20034;-87
2021/06/01 08:58:21;;;;;;;2.50;1.92;;;23.90;39.30;;;;;;4973578;28;20035;-89
2021/06/01 09:00:49;;;;;;;2.45;2.00;;;24.00;39.10;;;;;;4970235;28;20027;-86
2021/06/01 09:03:23;;;;;;;3.45;2.50;;;23.80;38.30;;;;;;4976715;28;20616;-85
2021/06/01 09:09:20;;;;;;;3.78;2.60;;;23.70;39.30;;;;;;4964856;28;20034;-87
2021/06/01 09:11:50;;;;;;;3.17;2.50;;;23.50;39.60;;;;;;4965345;28;20498;-85
2021/06/01 09:14:48;;;;;;;2.67;2.10;;;23.50;38.80;;;;;;4964226;28;20034;-87
2021/06/01 09:22:58;;;;;;;3.08;2.08;;;23.80;37.50;;;;;;4970511;28;20189;-89
2021/06/01 09:28:28;;;;;;;2.67;1.95;;;23.80;37.50;;;;;;4949165;28;20033;-88
2021/06/01 09:31:01;;;;;;;3.13;1.90;;;24.00;37.50;;;;;;4960864;28;20094;-89
2021/06/01 09:33:34;;;;;;;2.22;1.70;;;24.20;37.10;;;;;;4961067;28;20023;-89
2021/06/01 09:36:02;;;;;;;6.50;2.28;;;24.30;37.20;;;;;;4965271;28;20389;-89
2021/06/01 09:38:29;;;;;;;3.63;2.47;;;24.30;34.90;;;;;;4966758;28;20106;-89
2021/06/01 09:41:09;;;;;;;2.65;1.90;;;23.80;36.40;;;;;;4972916;28;20086;-90
2021/06/01 09:43:55;;;;;;;3.25;1.73;;;23.80;36.70;;;;;;4964607;28;20035;-89
2021/06/01 09:46:23;;;;;;;3.58;2.20;;;23.90;36.90;;;;;;4973298;28;20090;-88
2021/06/01 09:48:50;;;;;;;2.90;1.90;;;24.10;37.20;;;;;;4967343;28;20030;-87
2021/06/01 09:51:31;;;;;;;2.70;2.25;;;24.30;37.30;;;;;;4966104;28;20026;-88
2021/06/01 09:53:57;;;;;;;2.40;1.80;;;24.40;36.20;;;;;;4960230;28;20061;-89
2021/06/01 09:56:22;;;;;;;2.28;1.45;;;24.40;36.30;;;;;;4964033;28;20051;-88
2021/06/01 09:58:48;;;;;;;2.10;1.58;;;24.40;35.10;;;;;;4972575;28;20516;-89
2021/06/01 10:01:14;;;;;;;2.67;1.70;;;24.50;35.30;;;;;;4979184;28;20077;-88
2021/06/01 10:03:45;;;;;;;3.28;2.10;;;24.70;35.10;;;;;;4973772;28;20034;-88
2021/06/01 10:06:11;;;;;;;2.87;1.67;;;24.60;35.00;;;;;;4965584;28;20034;-88
2021/06/01 10:08:48;;;;;;;2.78;1.70;;;24.50;33.50;;;;;;4969002;28;20088;-87
2021/06/01 10:11:14;;;;;;;2.38;1.70;;;24.40;33.00;;;;;;4970795;28;20031;-86
2021/06/01 10:13:41;;;;;;;1.25;1.15;;;24.30;33.90;;;;;;4972354;28;20026;-85
2021/06/01 10:16:10;;;;;;;3.03;1.90;;;24.60;34.20;;;;;;4971047;28;20031;-87
2021/06/01 10:18:41;;;;;;;3.45;1.90;;;24.60;32.30;;;;;;4972374;28;20026;-88
2021/06/01 10:21:13;;;;;;;2.17;1.52;;;24.50;32.70;;;;;;4989874;28;20023;-89
2021/06/01 10:23:41;;;;;;;3.13;1.45;;;24.30;31.60;;;;;;4972062;28;20039;-89
2021/06/01 10:26:10;;;;;;;1.52;1.27;;;24.30;32.00;;;;;;4980206;28;20409;-91
2021/06/01 10:28:40;;;;;;;1.20;1.10;;;24.60;32.60;;;;;;4967850;28;20015;-90
2021/06/01 10:31:08;;;;;;;2.70;1.35;;;24.70;32.30;;;;;;4974295;28;20306;-90
2021/06/01 10:33:43;;;;;;;3.10;1.40;;;24.80;30.90;;;;;;4970416;28;20106;-90
2021/06/01 10:50:28;;;;;;;1.85;1.50;;;25.30;30.30;;;;;;4974712;28;20041;-87
2021/06/01 10:53:12;;;;;;;3.22;1.50;;;25.10;29.70;;;;;;4975328;28;20483;-89
2021/06/01 10:55:55;;;;;;;2.55;1.35;;;25.10;30.10;;;;;;4977503;28;20110;-88
2021/06/01 10:58:27;;;;;;;1.00;0.90;;;25.40;29.80;;;;;;4963681;28;20050;-90
2021/06/01 11:04:13;;;;;;;2.13;1.60;;;25.80;29.30;;;;;;4966471;28;20103;-91
2021/06/01 11:06:59;;;;;;;2.17;1.48;;;25.50;27.80;;;;;;4969723;28;20104;-90
2021/06/01 11:09:34;;;;;;;3.60;1.80;;;25.30;28.60;;;;;;4967196;28;20025;-93
2021/06/01 11:12:23;;;;;;;2.38;1.70;;;25.30;28.90;;;;;;4968626;28;20031;-91
2021/06/01 11:14:59;;;;;;;2.40;1.77;;;25.10;28.60;;;;;;4970543;28;20035;-93
2021/06/01 11:17:34;;;;;;;3.60;1.60;;;25.20;28.80;;;;;;4971287;28;20281;-90
2021/06/01 11:20:14;;;;;;;2.00;1.70;;;25.10;29.30;;;;;;4967358;28;20033;-90
2021/06/01 11:22:57;;;;;;;2.75;1.63;;;25.30;29.00;;;;;;4963069;28;20045;-91
2021/06/01 11:33:28;;;;;;;2.28;1.50;;;25.70;28.80;;;;;;4972994;28;20096;-90
2021/06/01 11:35:58;;;;;;;1.98;1.52;;;25.80;28.60;;;;;;4963782;28;20514;-89
2021/06/01 11:43:32;;;;;;;1.92;1.40;;;26.00;28.40;;;;;;4984186;28;20046;-91
2021/06/01 11:51:14;;;;;;;2.33;1.60;;;25.70;28.40;;;;;;4972392;28;20038;-90
2021/06/01 11:53:49;;;;;;;2.35;1.52;;;25.70;28.90;;;;;;4961019;28;20035;-90
2021/06/01 11:56:30;;;;;;;2.05;1.60;;;25.90;29.10;;;;;;4967285;28;20031;-92
2021/06/01 12:04:36;;;;;;;1.45;1.20;;;26.20;28.90;;;;;;4968024;28;20050;-91
2021/06/01 12:12:55;;;;;;;1.60;1.40;;;25.90;28.00;;;;;;4974038;28;20174;-90
2021/06/01 12:18:45;;;;;;;2.63;1.70;;;26.40;28.70;;;;;;4962824;28;20127;-89
2021/06/01 12:21:09;;;;;;;2.10;1.67;;;26.50;28.50;;;;;;4972737;28;20458;-92
2021/06/01 12:23:38;;;;;;;3.05;1.50;;;26.30;29.00;;;;;;4972204;28;20105;-88
2021/06/01 12:26:10;;;;;;;3.08;1.77;;;26.40;29.10;;;;;;4967564;28;20035;-90
2021/06/01 12:32:05;;;;;;;2.80;1.83;;;26.80;29.10;;;;;;4979946;28;20405;-88
2021/06/01 13:19:25;;;;;;;1.67;1.50;;;27.80;29.00;;;;;;4967398;28;20138;-86
2021/06/01 13:21:57;;;;;;;2.38;1.80;;;27.70;28.70;;;;;;4968821;28;20050;-86
2021/06/01 13:30:35;;;;;;;1.85;1.20;;;28.00;28.70;;;;;;4967900;28;20042;-88
2021/06/01 13:47:07;;;;;;;2.45;1.23;;;28.10;28.30;;;;;;4972832;28;20105;-91
2021/06/01 13:49:37;;;;;;;2.58;1.50;;;27.90;28.70;;;;;;4957720;28;20027;-90
2021/06/01 14:19:28;;;;;;;2.70;1.40;;;27.60;28.50;;;;;;4972022;28;20125;-87
2021/06/01 14:38:13;;;;;;;1.90;1.50;;;28.20;28.10;;;;;;4980412;28;20104;-91
2021/06/01 15:30:08;;;;;;;2.08;1.25;;;27.60;27.90;;;;;;4968101;28;20045;-89
2021/06/01 15:48:59;;;;;;;2.35;1.55;;;27.80;28.70;;;;;;4981907;28;20153;-87
2021/06/01 15:55:04;;;;;;;1.40;1.30;;;27.70;28.90;;;;;;4977078;28;20524;-89
2021/06/01 16:30:31;;;;;;;2.20;1.20;;;27.60;28.00;;;;;;4965866;28;20502;-90
2021/06/01 17:03:11;;;;;;;1.25;1.15;;;27.80;27.30;;;;;;4969983;28;20062;-91
2021/06/01 17:03:45;;;;;;;1.40;1.23;;;27.70;27.10;;;;;;4965671;28;20046;-93
2021/06/01 17:06:20;;;;;;;2.70;1.45;;;27.60;27.20;;;;;;4975726;28;20038;-90
2021/06/01 17:11:43;;;;;;;2.05;1.40;;;27.60;27.50;;;;;;4971769;28;20042;-90
2021/06/01 17:14:10;;;;;;;1.27;1.17;;;27.60;27.50;;;;;;4965033;28;20027;-91
2021/06/01 17:16:44;;;;;;;1.33;1.23;;;27.50;27.50;;;;;;4968693;28;20023;-89
2021/06/01 17:35:15;;;;;;;2.70;1.20;;;27.00;27.30;;;;;;4964562;28;20105;-86
2021/06/01 17:37:41;;;;;;;1.95;1.25;;;26.90;27.30;;;;;;4966064;28;20529;-87
2021/06/01 17:40:13;;;;;;;1.20;0.90;;;26.80;27.20;;;;;;4962748;28;20014;-88
2021/06/01 17:42:49;;;;;;;1.20;0.90;;;26.80;27.50;;;;;;4969601;28;20480;-88
2021/06/01 17:45:17;;;;;;;1.20;1.00;;;26.90;27.80;;;;;;4969379;28;20045;-86
2021/06/01 17:47:54;;;;;;;1.30;1.00;;;27.10;27.90;;;;;;4975149;28;20076;-87
2021/06/01 17:50:23;;;;;;;1.10;1.00;;;27.20;27.80;;;;;;4967468;28;20030;-88
2021/06/01 17:52:52;;;;;;;1.70;1.17;;;27.20;27.70;;;;;;4970263;28;20109;-87
2021/06/01 17:55:21;;;;;;;0.90;0.90;;;27.10;27.90;;;;;;4968335;28;20478;-86
2021/06/01 17:57:48;;;;;;;1.30;0.90;;;27.00;28.00;;;;;;4979450;28;20034;-91
2021/06/01 18:00:14;;;;;;;1.70;1.30;;;27.10;28.10;;;;;;4968451;28;20023;-90
2021/06/01 18:02:40;;;;;;;2.00;1.30;;;27.10;27.60;;;;;;4968456;28;20030;-87
2021/06/01 18:05:07;;;;;;;1.30;1.20;;;26.90;27.90;;;;;;4969299;28;20031;-87
2021/06/01 18:07:46;;;;;;;1.05;0.90;;;26.80;28.00;;;;;;4970042;28;20051;-86
2021/06/01 19:22:34;;;;;;;1.20;1.10;;;24.50;33.60;;;;;;4973025;28;20077;-87
2021/06/01 19:52:44;;;;;;;1.17;0.90;;;24.30;34.00;;;;;;4967260;28;20605;-86
2021/06/01 19:55:10;;;;;;;1.77;0.80;;;24.20;34.10;;;;;;4978849;28;20038;-87
2021/06/01 19:57:36;;;;;;;1.17;0.90;;;24.10;34.10;;;;;;4977742;28;20092;-86
2021/06/01 20:00:04;;;;;;;2.42;1.00;;;24.10;34.20;;;;;;4982396;28;20038;-87
2021/06/01 20:02:33;;;;;;;0.93;0.90;;;24.00;34.30;;;;;;4973357;28;20093;-87
2021/06/01 20:05:02;;;;;;;0.85;0.85;;;24.00;34.40;;;;;;4973936;28;20058;-87
2021/06/01 20:07:29;;;;;;;1.55;0.90;;;23.90;34.40;;;;;;4971142;28;20374;-87
2021/06/01 20:09:55;;;;;;;2.78;0.77;;;23.90;34.30;;;;;;4983638;28;20505;-88
2021/06/01 20:12:22;;;;;;;1.25;0.80;;;23.80;34.50;;;;;;4976883;28;20496;-87
2021/06/01 20:14:48;;;;;;;1.00;0.90;;;23.80;34.50;;;;;;4973198;28;20023;-88